Time;durP1;ratioP1;P1;durP2;ratioP2;P2;SDS_P1;SDS_P2;PMS_P1;PMS_P2;Temp;Humidity;BMP_temperature;BMP_pressure;BME280_temperature;BME280_humidity;BME280_pressure;Samples;Min_cycle;Max_cycle;Signal;HPM_P1;HPM_P2
2022/10/01 00:00:55;;;;;;;7.30;6.50;;;11.60;99.90;;;;;;5082854;28;20080;-63
2022/10/01 00:03:23;;;;;;;7.75;5.70;;;11.50;99.90;;;;;;5082975;28;20090;-61
2022/10/01 00:06:11;;;;;;;7.70;6.72;;;11.50;99.90;;;;;;5076600;28;20041;-63
2022/10/01 00:08:39;;;;;;;9.25;6.55;;;11.30;99.90;;;;;;5066567;28;20048;-62
2022/10/01 00:11:09;;;;;;;7.25;6.55;;;11.30;99.90;;;;;;5062742;28;20127;-62
2022/10/01 00:13:35;;;;;;;7.20;6.28;;;11.20;99.90;;;;;;5061443;28;20067;-62
2022/10/01 00:16:04;;;;;;;8.85;7.28;;;11.20;99.90;;;;;;5063013;28;20040;-61
2022/10/01 00:18:30;;;;;;;9.07;6.20;;;11.20;99.90;;;;;;5063003;28;20044;-63
2022/10/01 00:20:56;;;;;;;9.02;7.30;;;11.20;99.90;;;;;;5066475;28;20216;-62
2022/10/01 00:23:21;;;;;;;9.15;8.25;;;11.10;99.90;;;;;;5048660;28;20476;-61
2022/10/01 00:25:49;;;;;;;7.10;5.18;;;11.10;99.90;;;;;;5082254;28;20443;-63
2022/10/01 00:28:14;;;;;;;9.80;7.00;;;11.00;99.90;;;;;;5065506;28;20048;-63
2022/10/01 00:30:46;;;;;;;9.27;7.70;;;11.00;99.90;;;;;;5065332;28;20121;-62
2022/10/01 00:33:11;;;;;;;9.60;8.60;;;10.90;99.90;;;;;;5065772;28;20139;-60
2022/10/01 00:35:37;;;;;;;8.57;7.65;;;11.00;99.90;;;;;;5066532;28;20115;-63
2022/10/01 00:38:02;;;;;;;10.40;9.40;;;10.90;99.90;;;;;;5065235;28;20546;-63
2022/10/01 00:40:28;;;;;;;10.43;9.30;;;11.10;99.90;;;;;;5066630;28;20043;-62
2022/10/01 00:42:54;;;;;;;8.40;6.18;;;10.90;99.90;;;;;;5065563;28;20042;-63
2022/10/01 00:45:19;;;;;;;12.05;10.05;;;10.90;99.90;;;;;;5065849;28;20517;-63
2022/10/01 00:47:54;;;;;;;12.57;9.98;;;10.90;99.90;;;;;;5065237;28;20048;-61
2022/10/01 00:50:29;;;;;;;9.77;8.50;;;10.80;99.90;;;;;;5065293;28;20044;-63
2022/10/01 00:52:58;;;;;;;10.55;8.70;;;11.00;99.90;;;;;;5065235;28;20571;-62
2022/10/01 00:55:38;;;;;;;10.70;7.88;;;10.90;99.90;;;;;;5047359;28;20051;-63
2022/10/01 00:58:04;;;;;;;9.52;8.35;;;10.80;99.90;;;;;;5065239;28;20090;-63
2022/10/01 01:00:30;;;;;;;9.65;8.27;;;10.70;99.90;;;;;;5065707;28;20434;-63
2022/10/01 01:02:56;;;;;;;11.60;9.55;;;10.90;99.90;;;;;;5065639;28;20052;-63
2022/10/01 01:05:22;;;;;;;12.00;10.70;;;10.70;99.90;;;;;;5068101;28;20029;-62
2022/10/01 01:07:51;;;;;;;9.68;7.10;;;10.70;99.90;;;;;;5073035;28;20049;-60
2022/10/01 01:10:47;;;;;;;12.00;10.23;;;10.70;99.90;;;;;;5065554;28;20127;-63
2022/10/01 01:13:22;;;;;;;11.07;9.85;;;10.90;99.90;;;;;;5059755;28;20052;-61
2022/10/01 01:15:55;;;;;;;11.48;9.60;;;10.70;99.90;;;;;;5065532;28;20472;-62
2022/10/01 01:18:29;;;;;;;9.00;7.20;;;10.80;99.90;;;;;;5064480;28;20082;-63
2022/10/01 01:21:22;;;;;;;10.60;8.60;;;10.60;99.90;;;;;;5065019;28;20052;-62
2022/10/01 01:24:13;;;;;;;11.32;9.60;;;10.70;99.90;;;;;;5063875;28;20048;-61
2022/10/01 01:26:53;;;;;;;10.57;8.32;;;10.60;99.90;;;;;;5063626;28;20044;-62
2022/10/01 01:29:45;;;;;;;13.60;10.10;;;10.80;99.90;;;;;;5064710;28;20107;-60
2022/10/01 01:32:17;;;;;;;9.63;8.63;;;10.60;99.90;;;;;;5061828;28;20045;-62
2022/10/01 01:34:47;;;;;;;11.20;9.05;;;10.60;99.90;;;;;;5063955;28;20052;-62
2022/10/01 01:37:16;;;;;;;9.82;8.05;;;10.60;99.90;;;;;;5064139;28;20036;-61
2022/10/01 01:39:46;;;;;;;8.95;6.55;;;10.70;99.90;;;;;;5063605;28;20048;-60
2022/10/01 01:42:24;;;;;;;12.90;10.02;;;10.70;99.90;;;;;;5063362;28;20035;-61
2022/10/01 01:44:53;;;;;;;8.40;7.15;;;10.50;99.90;;;;;;5063520;28;20090;-63
2022/10/01 01:47:22;;;;;;;10.48;8.55;;;10.70;99.90;;;;;;5063881;28;20087;-63
2022/10/01 01:49:50;;;;;;;9.23;7.47;;;10.50;99.90;;;;;;5064283;28;20048;-62
2022/10/01 01:52:16;;;;;;;12.82;10.13;;;10.50;99.90;;;;;;5063865;28;20616;-62
2022/10/01 01:54:48;;;;;;;13.13;10.50;;;10.60;99.90;;;;;;5064785;28;20048;-62
2022/10/01 01:57:19;;;;;;;12.18;10.10;;;10.50;99.90;;;;;;5079584;28;20048;-62
2022/10/01 01:59:45;;;;;;;11.85;7.72;;;10.50;99.90;;;;;;5063828;28;20032;-62
2022/10/01 02:02:16;;;;;;;11.90;8.70;;;10.50;99.90;;;;;;5064647;28;20115;-63
2022/10/01 02:04:53;;;;;;;12.70;11.40;;;10.50;99.90;;;;;;5064734;28;20036;-63
2022/10/01 02:07:35;;;;;;;12.50;10.77;;;10.50;99.90;;;;;;5074036;28;20474;-62
2022/10/01 02:10:12;;;;;;;12.43;11.10;;;10.50;99.90;;;;;;5084522;28;20059;-63
2022/10/01 02:12:50;;;;;;;9.85;8.70;;;10.50;99.90;;;;;;5083203;28;20052;-63
2022/10/01 02:15:45;;;;;;;8.10;6.50;;;10.50;99.90;;;;;;5084340;28;20514;-61
2022/10/01 02:18:27;;;;;;;12.18;10.40;;;10.50;99.90;;;;;;5084203;28;20047;-61
2022/10/01 02:21:04;;;;;;;14.70;11.18;;;10.40;99.90;;;;;;5083805;28;20084;-62
2022/10/01 02:23:34;;;;;;;9.23;7.88;;;10.50;99.90;;;;;;5066501;28;20379;-62
2022/10/01 02:26:09;;;;;;;10.10;8.95;;;10.60;99.90;;;;;;5083661;28;20048;-61
2022/10/01 02:28:37;;;;;;;;;;;10.50;99.90;;;;;;5085065;28;20036;-63
2022/10/01 02:31:03;;;;;;;11.52;9.40;;;10.50;99.90;;;;;;5084165;28;19916;-62
2022/10/01 02:33:32;;;;;;;10.23;8.07;;;10.40;99.90;;;;;;5084336;28;20398;-61
2022/10/01 02:36:00;;;;;;;11.98;10.32;;;10.40;99.90;;;;;;5083882;28;20044;-63
2022/10/01 02:38:27;;;;;;;10.48;9.38;;;10.50;99.90;;;;;;5084200;28;20044;-63
2022/10/01 02:40:59;;;;;;;11.32;10.05;;;10.50;99.90;;;;;;5083416;28;20418;-63
2022/10/01 02:43:31;;;;;;;12.13;9.13;;;10.50;99.90;;;;;;5083582;28;20046;-63
2022/10/01 02:46:06;;;;;;;11.85;9.63;;;10.50;99.90;;;;;;5083898;28;20040;-63
2022/10/01 02:48:33;;;;;;;8.63;6.25;;;10.40;99.90;;;;;;5065186;28;20044;-62
2022/10/01 02:51:14;;;;;;;10.48;9.02;;;10.40;99.90;;;;;;5084179;28;20547;-63
2022/10/01 02:53:46;;;;;;;9.80;8.23;;;10.30;99.90;;;;;;5084022;28;20044;-63
2022/10/01 02:57:21;;;;;;;10.65;8.45;;;10.30;99.90;;;;;;5065045;28;20209;-63
2022/10/01 02:58:58;;;;;;;8.38;7.35;;;10.40;99.90;;;;;;5083364;28;20135;-62
2022/10/01 03:01:24;;;;;;;11.80;8.43;;;10.30;99.90;;;;;;5083460;28;20185;-63
2022/10/01 03:03:49;;;;;;;11.40;7.05;;;10.40;99.90;;;;;;5083344;28;20462;-63
2022/10/01 03:06:15;;;;;;;11.25;10.07;;;10.30;99.90;;;;;;5076622;28;20034;-62
2022/10/01 03:08:41;;;;;;;8.75;4.88;;;10.50;99.90;;;;;;5065973;28;20056;-61
2022/10/01 03:11:08;;;;;;;9.35;7.22;;;10.30;99.90;;;;;;5063034;28;20463;-62
2022/10/01 03:13:33;;;;;;;8.98;6.82;;;10.50;99.90;;;;;;5063321;28;20063;-62
2022/10/01 03:15:59;;;;;;;9.68;8.27;;;10.40;99.90;;;;;;5062689;28;20044;-62
2022/10/01 03:18:25;;;;;;;9.32;7.78;;;10.50;99.90;;;;;;5063418;28;20052;-62
2022/10/01 03:20:50;;;;;;;10.18;8.35;;;10.50;99.90;;;;;;5062842;28;20099;-62
2022/10/01 03:23:16;;;;;;;10.98;9.88;;;10.40;99.90;;;;;;5063163;28;20043;-61
2022/10/01 03:25:42;;;;;;;10.38;9.23;;;10.50;99.90;;;;;;5063097;28;20506;-62
2022/10/01 03:28:07;;;;;;;9.13;7.57;;;10.50;99.90;;;;;;5062751;28;20070;-61
2022/10/01 03:30:33;;;;;;;10.13;8.60;;;10.60;99.90;;;;;;5063233;28;20041;-61
2022/10/01 03:32:59;;;;;;;7.72;6.93;;;10.60;99.90;;;;;;5044506;28;20048;-60
2022/10/01 03:35:24;;;;;;;10.73;9.57;;;10.40;99.90;;;;;;5063078;28;20076;-61
2022/10/01 03:37:50;;;;;;;11.07;10.00;;;10.60;99.90;;;;;;5063213;28;20079;-62
2022/10/01 03:40:15;;;;;;;11.77;9.90;;;10.50;99.90;;;;;;5063193;28;20076;-61
2022/10/01 03:42:41;;;;;;;8.18;6.07;;;10.60;99.90;;;;;;5062508;28;20040;-61
2022/10/01 03:45:07;;;;;;;7.72;6.13;;;10.50;99.90;;;;;;5063352;28;20036;-62
2022/10/01 03:47:33;;;;;;;8.27;7.03;;;10.50;99.90;;;;;;5063040;28;20048;-61
2022/10/01 03:49:58;;;;;;;8.35;7.13;;;10.90;99.90;;;;;;5062921;28;20491;-61
2022/10/01 03:52:24;;;;;;;7.25;6.45;;;10.60;99.90;;;;;;5062719;28;20698;-63
2022/10/01 03:54:49;;;;;;;7.07;6.13;;;10.80;99.90;;;;;;5065841;28;20127;-61
2022/10/01 03:57:15;;;;;;;7.72;6.55;;;10.70;99.90;;;;;;5066841;28;20052;-61
2022/10/01 03:59:41;;;;;;;7.05;5.95;;;10.60;99.90;;;;;;5066890;28;20119;-62
2022/10/01 04:02:07;;;;;;;4.93;4.10;;;10.70;99.90;;;;;;5032147;28;20696;-61
2022/10/01 04:04:33;;;;;;;6.47;5.38;;;10.80;99.90;;;;;;5067046;28;20051;-62
2022/10/01 04:06:58;;;;;;;6.32;5.35;;;10.70;99.90;;;;;;5077706;28;20040;-62
2022/10/01 04:09:24;;;;;;;7.05;5.53;;;10.70;99.90;;;;;;5067218;28;20430;-61
2022/10/01 04:11:50;;;;;;;5.65;5.05;;;10.60;99.90;;;;;;5065698;28;20056;-62
2022/10/01 04:14:15;;;;;;;5.43;4.32;;;10.70;99.90;;;;;;5066505;28;20435;-62
2022/10/01 04:16:41;;;;;;;4.60;3.40;;;10.50;99.90;;;;;;5066263;28;20032;-60
2022/10/01 04:19:07;;;;;;;5.88;4.20;;;10.70;99.90;;;;;;5066651;28;20091;-59
2022/10/01 04:21:32;;;;;;;9.40;4.22;;;10.60;99.90;;;;;;5067123;28;20032;-62
2022/10/01 04:23:58;;;;;;;4.78;3.22;;;10.70;99.90;;;;;;5065499;28;20056;-62
2022/10/01 04:26:24;;;;;;;5.65;4.82;;;10.60;99.90;;;;;;5065689;28;20091;-62
2022/10/01 04:28:50;;;;;;;5.38;4.70;;;10.70;99.90;;;;;;5066405;28;20076;-61
2022/10/01 04:31:24;;;;;;;5.03;4.35;;;10.60;99.90;;;;;;5066578;28;20052;-61
2022/10/01 04:33:52;;;;;;;4.40;3.05;;;10.80;99.90;;;;;;5067136;28;20045;-61
2022/10/01 04:36:17;;;;;;;5.85;3.90;;;10.70;99.90;;;;;;5066733;28;20033;-62
2022/10/01 04:38:43;;;;;;;3.92;2.97;;;10.80;99.90;;;;;;5066361;28;20237;-61
2022/10/01 04:41:08;;;;;;;4.75;3.90;;;10.70;99.90;;;;;;5065913;28;20033;-61
2022/10/01 04:43:35;;;;;;;4.85;3.67;;;10.70;99.90;;;;;;5066038;28;20056;-62
2022/10/01 04:46:01;;;;;;;3.45;2.92;;;10.80;99.90;;;;;;5066204;28;20384;-62
2022/10/01 04:48:26;;;;;;;3.53;2.72;;;10.90;99.90;;;;;;5065443;28;20041;-61
2022/10/01 04:50:52;;;;;;;3.22;2.40;;;10.70;99.90;;;;;;5066071;28;20048;-61
2022/10/01 04:53:18;;;;;;;3.60;2.63;;;10.90;99.90;;;;;;5065506;28;20427;-62
2022/10/01 04:55:45;;;;;;;4.15;3.03;;;10.90;99.90;;;;;;5064949;28;20186;-61
2022/10/01 04:58:10;;;;;;;4.05;3.45;;;10.90;99.90;;;;;;5047833;28;20123;-62
2022/10/01 05:00:36;;;;;;;4.40;4.00;;;10.80;99.90;;;;;;5065691;28;20135;-62
2022/10/01 05:03:02;;;;;;;4.13;3.72;;;10.90;99.90;;;;;;5065271;28;20067;-63
2022/10/01 05:05:28;;;;;;;4.55;4.15;;;10.90;99.90;;;;;;5069063;28;20727;-62
2022/10/01 05:07:53;;;;;;;4.15;3.65;;;10.70;99.90;;;;;;5076842;28;20040;-61
2022/10/01 05:10:21;;;;;;;4.85;4.30;;;10.90;99.90;;;;;;5085308;28;20169;-62
2022/10/01 05:12:48;;;;;;;4.88;4.38;;;10.80;99.90;;;;;;5083890;28;20441;-62
2022/10/01 05:15:15;;;;;;;4.53;4.13;;;10.90;99.90;;;;;;5085526;28;20078;-63
2022/10/01 05:17:41;;;;;;;4.55;3.88;;;10.80;99.90;;;;;;5085419;28;20061;-61
2022/10/01 05:20:10;;;;;;;4.47;3.88;;;10.80;99.90;;;;;;5084979;28;20118;-59
2022/10/01 05:22:36;;;;;;;4.30;3.38;;;10.80;99.90;;;;;;5085388;28;20032;-63
2022/10/01 05:25:02;;;;;;;3.63;2.92;;;10.90;99.90;;;;;;5085263;28;20168;-62
2022/10/01 05:27:30;;;;;;;4.70;4.07;;;10.90;99.90;;;;;;5084687;28;20067;-61
2022/10/01 05:29:56;;;;;;;4.07;3.20;;;10.90;99.90;;;;;;5085607;28;20477;-63
2022/10/01 05:32:22;;;;;;;5.80;4.38;;;10.90;99.90;;;;;;5085279;28;20131;-63
2022/10/01 05:34:48;;;;;;;4.85;3.80;;;11.10;99.90;;;;;;5085313;28;20514;-62
2022/10/01 05:37:14;;;;;;;4.38;3.95;;;10.90;99.90;;;;;;5084960;28;20094;-61
2022/10/01 05:39:40;;;;;;;4.50;4.00;;;11.10;99.90;;;;;;5084978;28;20048;-63
2022/10/01 05:42:05;;;;;;;4.50;4.00;;;11.00;99.90;;;;;;5083787;28;20166;-61
2022/10/01 05:44:36;;;;;;;4.45;3.97;;;10.90;99.90;;;;;;5084871;28;20044;-61
2022/10/01 05:47:04;;;;;;;4.32;3.92;;;11.00;99.90;;;;;;5084589;28;20047;-61
2022/10/01 05:49:30;;;;;;;4.97;3.50;;;11.00;99.90;;;;;;5085109;28;20047;-61
2022/10/01 05:51:56;;;;;;;3.92;3.53;;;11.20;99.90;;;;;;5084166;28;20051;-63
2022/10/01 05:54:22;;;;;;;4.30;3.65;;;11.20;99.90;;;;;;5084338;28;20035;-62
2022/10/01 05:56:48;;;;;;;4.47;3.58;;;11.20;99.90;;;;;;5084295;28;20502;-61
2022/10/01 05:59:14;;;;;;;4.40;4.00;;;11.20;99.90;;;;;;5084518;28;20039;-62
2022/10/01 06:01:40;;;;;;;6.45;4.72;;;11.10;99.90;;;;;;5083769;28;20048;-60
2022/10/01 06:04:05;;;;;;;4.28;3.03;;;11.20;99.90;;;;;;5084934;28;20066;-61
2022/10/01 06:06:31;;;;;;;5.47;4.47;;;11.20;99.90;;;;;;5078246;28;20486;-61
2022/10/01 06:08:58;;;;;;;6.55;5.30;;;11.30;99.90;;;;;;5065174;28;20036;-62
2022/10/01 06:11:25;;;;;;;8.13;5.47;;;11.20;99.90;;;;;;5063512;28;20053;-62
2022/10/01 06:13:51;;;;;;;6.38;5.78;;;11.30;99.90;;;;;;5064697;28;20387;-62
2022/10/01 06:16:17;;;;;;;6.28;5.68;;;11.20;99.90;;;;;;5064090;28;20045;-61
2022/10/01 06:18:42;;;;;;;6.90;6.18;;;11.20;99.90;;;;;;5064124;28;20143;-63
2022/10/01 06:21:08;;;;;;;8.43;6.15;;;11.20;99.90;;;;;;5063889;28;20698;-62
2022/10/01 06:23:35;;;;;;;6.53;5.13;;;11.30;99.90;;;;;;5064173;28;20080;-62
2022/10/01 06:26:04;;;;;;;6.90;5.95;;;11.40;99.90;;;;;;5063104;28;20051;-63
2022/10/01 06:28:30;;;;;;;6.63;5.93;;;11.30;99.90;;;;;;5064205;28;20056;-63
2022/10/01 06:30:56;;;;;;;8.93;5.90;;;11.20;99.90;;;;;;5064281;28;20098;-63
2022/10/01 06:33:21;;;;;;;6.47;5.65;;;11.40;99.90;;;;;;5045801;28;20040;-63
2022/10/01 06:35:49;;;;;;;8.60;6.47;;;11.40;99.90;;;;;;5063979;28;20569;-64
2022/10/01 06:38:18;;;;;;;7.53;6.80;;;11.30;99.90;;;;;;5063394;28;20075;-63
2022/10/01 06:40:56;;;;;;;7.57;6.78;;;11.40;99.90;;;;;;5062481;28;20040;-63
2022/10/01 06:43:23;;;;;;;7.68;6.65;;;11.60;99.90;;;;;;5064188;28;20098;-62
2022/10/01 06:45:50;;;;;;;11.45;7.20;;;11.60;99.90;;;;;;5063737;28;20570;-63
2022/10/01 06:48:18;;;;;;;8.32;7.43;;;11.60;99.90;;;;;;5062741;28;20052;-63
2022/10/01 06:50:46;;;;;;;11.15;7.53;;;11.70;99.90;;;;;;5062996;28;20044;-62
2022/10/01 06:53:13;;;;;;;7.75;6.95;;;11.60;99.90;;;;;;5063523;28;20112;-62
2022/10/01 06:55:39;;;;;;;9.70;8.02;;;11.70;99.90;;;;;;5061606;28;20384;-63
2022/10/01 06:58:09;;;;;;;10.50;7.95;;;11.60;99.90;;;;;;5044581;28;20131;-63
2022/10/01 07:00:37;;;;;;;12.10;8.60;;;11.80;99.90;;;;;;5063343;28;20040;-63
2022/10/01 07:03:07;;;;;;;10.45;8.15;;;11.80;99.90;;;;;;5062853;28;20082;-63
2022/10/01 07:05:33;;;;;;;8.27;7.32;;;11.70;99.90;;;;;;5065810;28;20054;-61
2022/10/01 07:07:59;;;;;;;9.63;8.20;;;11.80;99.90;;;;;;5054507;28;20479;-61
2022/10/01 07:10:24;;;;;;;9.57;8.55;;;11.80;99.90;;;;;;5044153;28;20720;-62
2022/10/01 07:12:50;;;;;;;12.65;9.35;;;12.00;99.90;;;;;;5062556;28;20056;-61
2022/10/01 07:15:18;;;;;;;9.88;8.27;;;11.90;99.90;;;;;;5062907;28;20526;-62
2022/10/01 07:17:47;;;;;;;9.77;8.40;;;12.00;99.90;;;;;;5062664;28;20040;-64
2022/10/01 07:20:19;;;;;;;11.95;8.75;;;12.10;99.90;;;;;;5062819;28;20048;-63
2022/10/01 07:22:46;;;;;;;10.90;9.23;;;12.10;99.90;;;;;;5063033;28;20055;-62
2022/10/01 07:25:12;;;;;;;12.82;9.48;;;12.10;99.90;;;;;;5062825;28;20056;-64
2022/10/01 07:27:38;;;;;;;13.52;9.98;;;12.20;99.90;;;;;;5063342;28;20040;-63
2022/10/01 07:30:05;;;;;;;12.07;9.27;;;12.30;99.90;;;;;;5067219;28;20507;-60
2022/10/01 07:32:31;;;;;;;12.77;11.52;;;12.40;99.90;;;;;;5067215;28;20621;-63
2022/10/01 07:34:58;;;;;;;14.10;12.60;;;12.60;99.90;;;;;;5066729;28;20036;-63
2022/10/01 07:37:24;;;;;;;16.27;14.23;;;12.70;99.90;;;;;;5067513;28;20044;-63
2022/10/01 07:39:49;;;;;;;14.07;12.48;;;12.90;99.90;;;;;;5049101;28;20053;-62
2022/10/01 07:42:16;;;;;;;12.98;10.52;;;12.90;99.90;;;;;;5047772;28;20045;-63
2022/10/01 07:44:42;;;;;;;11.88;8.68;;;13.00;99.90;;;;;;5067387;28;20846;-63
2022/10/01 07:47:08;;;;;;;8.38;6.63;;;13.10;99.90;;;;;;5067249;28;20417;-62
2022/10/01 07:49:33;;;;;;;10.73;7.40;;;13.20;99.90;;;;;;5067107;28;20045;-63
2022/10/01 07:51:59;;;;;;;11.88;6.65;;;13.20;99.90;;;;;;5066317;28;20098;-63
2022/10/01 07:54:25;;;;;;;12.18;6.80;;;13.10;99.90;;;;;;5067171;28;20098;-62
2022/10/01 07:56:54;;;;;;;12.18;6.40;;;13.10;99.90;;;;;;5066641;28;20048;-62
2022/10/01 07:59:25;;;;;;;11.10;5.60;;;13.10;99.90;;;;;;5048255;28;20076;-63
2022/10/01 08:01:51;;;;;;;8.52;5.95;;;13.20;99.90;;;;;;5067216;28;20064;-63
2022/10/01 08:07:07;;;;;;;10.48;5.90;;;13.20;99.90;;;;;;5056773;28;20039;-62
2022/10/01 08:09:33;;;;;;;8.20;5.10;;;13.00;99.90;;;;;;5087071;28;20043;-64
2022/10/01 08:11:59;;;;;;;7.53;5.07;;;13.10;99.90;;;;;;5085731;28;20064;-63
2022/10/01 08:14:25;;;;;;;9.85;5.40;;;13.10;99.90;;;;;;5087713;28;20055;-65
2022/10/01 08:16:54;;;;;;;8.98;4.72;;;13.10;99.90;;;;;;5086993;28;20036;-64
2022/10/01 08:19:20;;;;;;;8.80;4.20;;;13.30;99.90;;;;;;5086924;28;20040;-64
2022/10/01 08:21:45;;;;;;;6.82;4.35;;;13.40;99.90;;;;;;5086928;28;20040;-63
2022/10/01 08:24:11;;;;;;;9.32;4.55;;;13.50;99.90;;;;;;5069042;28;20097;-63
2022/10/01 08:26:37;;;;;;;10.05;5.43;;;13.50;99.90;;;;;;5085966;28;20473;-64
2022/10/01 08:29:03;;;;;;;7.50;4.65;;;13.70;99.90;;;;;;5085605;28;20036;-63
2022/10/01 08:31:28;;;;;;;10.35;4.93;;;13.80;99.90;;;;;;5087155;28;20040;-62
2022/10/01 08:33:54;;;;;;;6.22;4.45;;;13.80;99.90;;;;;;5087216;28;20512;-62
2022/10/01 08:36:21;;;;;;;8.70;4.82;;;14.00;99.90;;;;;;5085988;28;20482;-63
2022/10/01 08:38:47;;;;;;;11.52;5.10;;;14.00;99.90;;;;;;5068724;28;20277;-63
2022/10/01 08:41:27;;;;;;;9.07;4.55;;;14.10;99.90;;;;;;5085156;28;20047;-64
2022/10/01 08:43:53;;;;;;;10.07;4.53;;;14.20;99.90;;;;;;5085492;28;20044;-64
2022/10/01 08:46:24;;;;;;;8.80;4.57;;;14.40;99.90;;;;;;5086030;28;20804;-62
2022/10/01 08:49:11;;;;;;;10.77;4.05;;;14.60;99.90;;;;;;5086085;28;20044;-64
2022/10/01 08:52:05;;;;;;;11.07;4.45;;;14.60;99.90;;;;;;5085775;28;20044;-63
2022/10/01 08:54:31;;;;;;;6.00;3.28;;;14.50;99.90;;;;;;5085163;28;20044;-61
2022/10/01 08:57:00;;;;;;;7.22;3.00;;;14.70;99.90;;;;;;5067317;28;20047;-62
2022/10/01 08:59:36;;;;;;;8.85;2.80;;;14.80;99.90;;;;;;5086371;28;20051;-62
2022/10/01 09:02:20;;;;;;;8.25;2.60;;;15.20;99.90;;;;;;5067392;28;20043;-62
2022/10/01 09:04:49;;;;;;;7.97;2.30;;;15.40;99.90;;;;;;5083858;28;20636;-63
2022/10/01 09:07:29;;;;;;;11.68;2.22;;;16.10;99.90;;;;;;5074377;28;20036;-62
2022/10/01 09:10:32;;;;;;;9.85;2.22;;;16.30;99.90;;;;;;5085250;28;20437;-64
2022/10/01 09:13:38;;;;;;;7.78;1.83;;;16.40;99.90;;;;;;5086414;28;20079;-64
2022/10/01 09:16:26;;;;;;;5.57;1.58;;;16.30;99.90;;;;;;5067551;28;20136;-64
2022/10/01 09:19:18;;;;;;;8.48;2.08;;;16.20;99.90;;;;;;5084970;28;20044;-64
2022/10/01 09:21:58;;;;;;;4.65;1.65;;;16.00;99.90;;;;;;5043174;28;20056;-63
2022/10/01 09:24:39;;;;;;;5.90;1.50;;;16.40;99.90;;;;;;5085042;28;20499;-64
2022/10/01 09:27:30;;;;;;;11.02;2.25;;;16.70;99.90;;;;;;5085020;28;20098;-63
2022/10/01 09:30:18;;;;;;;8.95;2.20;;;17.10;99.90;;;;;;5084295;28;20056;-64
2022/10/01 09:32:56;;;;;;;10.30;1.90;;;17.60;99.90;;;;;;5084788;28;20047;-64
2022/10/01 09:35:36;;;;;;;8.35;2.00;;;17.30;99.90;;;;;;5085350;28;20040;-63
2022/10/01 09:38:08;;;;;;;6.88;1.95;;;16.70;99.90;;;;;;5084898;28;20055;-63
2022/10/01 09:40:59;;;;;;;9.30;2.13;;;16.40;99.90;;;;;;5084625;28;20486;-64
2022/10/01 09:43:28;;;;;;;10.73;2.28;;;16.30;99.90;;;;;;5062927;28;20469;-64
2022/10/01 09:45:54;;;;;;;11.02;3.17;;;16.20;99.90;;;;;;5085450;28;20040;-62
2022/10/01 09:48:48;;;;;;;9.85;2.60;;;16.00;99.90;;;;;;5084518;28;20046;-63
2022/10/01 09:51:21;;;;;;;7.15;1.85;;;16.00;99.90;;;;;;5083841;28;20596;-64
2022/10/01 09:53:59;;;;;;;10.93;2.17;;;16.30;99.90;;;;;;5066467;28;20055;-62
2022/10/01 09:56:41;;;;;;;11.20;2.08;;;16.60;99.90;;;;;;5084309;28;20043;-62
2022/10/01 09:59:16;;;;;;;10.32;2.10;;;17.20;99.90;;;;;;5084419;28;20055;-62
2022/10/01 10:01:55;;;;;;;8.45;2.00;;;17.10;99.90;;;;;;5084667;28;20201;-62
2022/10/01 10:04:25;;;;;;;8.80;2.03;;;16.80;99.90;;;;;;5066315;28;20091;-63
2022/10/01 10:06:58;;;;;;;10.50;1.85;;;16.60;99.90;;;;;;5076875;28;20048;-64
2022/10/01 10:09:28;;;;;;;8.07;2.22;;;16.40;99.90;;;;;;5065055;28;20047;-64
2022/10/01 10:11:55;;;;;;;10.60;2.00;;;16.30;99.90;;;;;;5063529;28;20105;-64
2022/10/01 10:14:28;;;;;;;11.27;2.70;;;16.10;99.90;;;;;;5064663;28;20434;-64
2022/10/01 10:16:55;;;;;;;11.75;2.53;;;16.20;99.90;;;;;;5064024;28;20151;-64
2022/10/01 10:19:24;;;;;;;12.23;2.20;;;16.50;99.90;;;;;;5063185;28;20045;-64
2022/10/01 10:21:53;;;;;;;6.32;1.33;;;17.30;99.90;;;;;;5064216;28;20033;-63
2022/10/01 10:24:30;;;;;;;7.25;1.30;;;17.10;99.90;;;;;;5064369;28;20059;-62
2022/10/01 10:26:58;;;;;;;8.63;1.70;;;17.00;99.90;;;;;;5063480;28;20497;-63
2022/10/01 10:29:33;;;;;;;6.25;1.23;;;16.80;99.90;;;;;;5064209;28;20059;-63
2022/10/01 10:32:02;;;;;;;6.47;1.45;;;16.60;99.90;;;;;;5063610;28;20040;-64
2022/10/01 10:34:34;;;;;;;4.63;1.00;;;16.60;99.90;;;;;;5063900;28;20047;-64
2022/10/01 10:37:06;;;;;;;3.10;0.82;;;16.50;99.90;;;;;;5064348;28;20166;-63
2022/10/01 10:39:38;;;;;;;5.25;1.10;;;16.30;99.90;;;;;;5045479;28;20045;-63
2022/10/01 10:42:05;;;;;;;4.80;1.38;;;16.10;99.90;;;;;;5063703;28;20033;-63
2022/10/01 10:44:36;;;;;;;5.78;1.42;;;15.80;99.90;;;;;;5063868;28;20060;-63
2022/10/01 10:47:07;;;;;;;5.25;1.33;;;15.40;99.90;;;;;;5062948;28;20670;-64
2022/10/01 10:49:43;;;;;;;5.97;1.48;;;15.10;99.90;;;;;;5045843;28;20044;-64
2022/10/01 10:52:36;;;;;;;6.13;1.98;;;14.90;99.90;;;;;;5063525;28;20040;-63
2022/10/01 10:55:23;;;;;;;4.25;1.08;;;14.20;99.90;;;;;;5059455;28;20057;-63
2022/10/01 10:57:49;;;;;;;2.30;0.60;;;13.70;99.90;;;;;;5063810;28;20059;-62
2022/10/01 11:00:19;;;;;;;3.50;0.80;;;13.30;99.90;;;;;;5063881;28;20388;-62
2022/10/01 11:03:04;;;;;;;2.30;0.60;;;13.00;99.90;;;;;;5044806;28;20181;-64
2022/10/01 11:05:31;;;;;;;;;;;12.80;99.90;;;;;;5066668;28;20052;-63
2022/10/01 11:08:05;;;;;;;5.10;1.10;;;12.60;99.90;;;;;;5071988;28;19924;-62
2022/10/01 11:11:04;;;;;;;3.17;0.80;;;12.80;99.90;;;;;;5062425;28;20079;-63
2022/10/01 11:13:58;;;;;;;4.50;0.98;;;13.30;99.90;;;;;;5063256;28;20438;-61
2022/10/01 11:16:48;;;;;;;5.35;0.82;;;13.80;99.90;;;;;;5063912;28;20052;-62
2022/10/01 11:19:40;;;;;;;5.47;1.10;;;14.10;99.90;;;;;;5063876;28;20386;-63
2022/10/01 11:22:24;;;;;;;3.42;0.90;;;14.00;99.90;;;;;;5063432;28;20037;-62
2022/10/01 11:24:50;;;;;;;2.88;0.98;;;13.90;99.90;;;;;;5062929;28;20050;-63
2022/10/01 11:27:45;;;;;;;4.22;1.08;;;14.30;99.90;;;;;;5062340;28;20053;-62
2022/10/01 11:30:24;;;;;;;5.50;1.40;;;14.80;99.90;;;;;;5009897;28;20820;-63
2022/10/01 11:33:18;;;;;;;3.75;1.10;;;14.70;99.90;;;;;;5063323;28;20361;-63
2022/10/01 11:35:57;;;;;;;3.80;1.00;;;14.80;99.90;;;;;;5062889;28;20118;-61
2022/10/01 11:38:34;;;;;;;5.55;1.00;;;14.80;99.90;;;;;;5063018;28;20040;-63
2022/10/01 11:41:07;;;;;;;6.47;1.25;;;14.90;99.90;;;;;;5061732;28;20675;-63
2022/10/01 11:43:41;;;;;;;3.40;0.95;;;14.90;99.90;;;;;;5062957;28;20120;-63
2022/10/01 11:46:14;;;;;;;3.65;0.80;;;14.80;99.90;;;;;;5063197;28;20127;-63
2022/10/01 11:48:42;;;;;;;6.45;0.90;;;14.70;99.90;;;;;;5045276;28;20048;-63
2022/10/01 11:51:14;;;;;;;4.22;1.10;;;14.60;99.90;;;;;;5045838;28;20048;-62
2022/10/01 11:53:47;;;;;;;7.22;1.48;;;15.20;99.90;;;;;;5063111;28;20060;-63
2022/10/01 11:59:37;;;;;;;3.72;0.90;;;15.60;99.90;;;;;;5062531;28;20513;-63
2022/10/01 12:02:22;;;;;;;6.60;1.55;;;15.70;99.90;;;;;;5062958;28;20086;-62
2022/10/01 12:04:58;;;;;;;5.43;1.25;;;15.80;99.90;;;;;;5062757;28;20753;-62
2022/10/01 12:07:37;;;;;;;3.35;0.73;;;16.10;99.90;;;;;;5071335;28;20041;-63
2022/10/01 12:10:22;;;;;;;5.05;1.20;;;16.20;99.90;;;;;;5062010;28;20080;-63
2022/10/01 12:13:12;;;;;;;6.15;1.10;;;16.30;99.90;;;;;;5062028;28;20058;-64
2022/10/01 12:16:05;;;;;;;6.20;1.17;;;16.20;99.90;;;;;;5047497;28;20482;-63
2022/10/01 12:18:57;;;;;;;5.40;1.25;;;16.20;99.90;;;;;;5066474;28;20040;-62
2022/10/01 12:21:28;;;;;;;6.63;1.50;;;16.20;99.90;;;;;;5065917;28;20151;-63
2022/10/01 12:24:05;;;;;;;6.45;1.48;;;16.30;99.90;;;;;;5066589;28;20037;-63
2022/10/01 12:26:43;;;;;;;5.82;1.20;;;16.50;99.90;;;;;;5065525;28;20044;-63
2022/10/01 12:29:13;;;;;;;6.45;1.30;;;16.50;99.90;;;;;;5067076;28;20040;-62
2022/10/01 12:31:54;;;;;;;7.30;1.40;;;16.50;99.90;;;;;;5066769;28;20041;-63
2022/10/01 12:34:25;;;;;;;5.13;1.17;;;16.40;99.90;;;;;;5048299;28;20272;-63
2022/10/01 12:37:13;;;;;;;7.75;1.58;;;16.40;99.90;;;;;;5066646;28;20033;-63
2022/10/01 12:39:44;;;;;;;12.43;2.22;;;16.50;99.90;;;;;;5066184;28;20099;-63
2022/10/01 12:42:47;;;;;;;6.07;1.80;;;16.40;99.90;;;;;;5066785;28;20044;-62
2022/10/01 12:45:25;;;;;;;7.63;1.77;;;16.30;99.90;;;;;;5066091;28;20048;-64
2022/10/01 12:48:08;;;;;;;7.97;1.50;;;16.40;99.90;;;;;;5064389;28;20099;-63
2022/10/01 12:50:59;;;;;;;10.18;2.15;;;16.30;99.90;;;;;;5065771;28;20427;-62
2022/10/01 12:53:38;;;;;;;13.02;2.00;;;16.20;99.90;;;;;;5065765;28;20070;-63
2022/10/01 12:56:14;;;;;;;8.73;1.63;;;16.60;99.90;;;;;;5064828;28;20442;-64
2022/10/01 12:59:05;;;;;;;8.15;1.67;;;16.70;99.90;;;;;;5066087;28;20029;-64
2022/10/01 13:02:10;;;;;;;8.50;2.40;;;17.00;99.90;;;;;;5064940;28;20052;-64
2022/10/01 13:05:07;;;;;;;10.38;1.83;;;17.00;99.90;;;;;;5064403;28;20056;-62
2022/10/01 13:07:51;;;;;;;5.63;1.83;;;16.90;99.90;;;;;;5074030;28;20053;-63
2022/10/01 13:10:26;;;;;;;8.77;1.67;;;16.80;99.90;;;;;;5063852;28;20044;-65
2022/10/01 13:12:57;;;;;;;9.50;1.80;;;16.60;99.90;;;;;;5064500;28;20053;-63